Nemaha, Nebraska
Current Conditions -  °F | °C
As of 3:53 AM on Sunday 26 Oct 2014 (Local Time) from KFNB Reporting Station
Clear Clear  
Wind Chill: 58°   Ceiling: Unl
Heat Index: 58°   Visibility: 10mi
Dew Point: 45°   Wind: 10mph
Humidity: 62%   Direction: 120°ESE
Pressure: 29.92"   Gusts: NA
Location:  40.34°N, 95.67°W
Report Text: KFNB 260853Z AUTO 12009KT 10SM CLR 14/07 A2992 RMK AO2 SLP124 T01440072 58020
Loading
Personal Weather Stations






























Interactive Weather Map
Tropical Storm Tracking
New forecast layout! Learn more

10-Day Weather Forecast

Advertisements
Track Severe Weather on mobile